Time;durP1;ratioP1;P1;durP2;ratioP2;P2;SDS_P1;SDS_P2;PMS_P1;PMS_P2;Temp;Humidity;BMP_temperature;BMP_pressure;BME280_temperature;BME280_humidity;BME280_pressure;Samples;Min_cycle;Max_cycle;Signal;HPM_P1;HPM_P2
2021/08/10 00:01:51;;;;;;;11.13;7.10;;;;;;;;;;4898224;29;20192;-90
2021/08/10 00:04:18;;;;;;;13.13;7.07;;;;;;;;;;4877803;29;20261;-90
2021/08/10 00:06:43;;;;;;;14.80;7.10;;;16.70;99.90;;;;;;4896542;29;20217;-90
2021/08/10 00:09:09;;;;;;;11.85;7.13;;;;;;;;;;4880924;29;20230;-90
2021/08/10 00:11:35;;;;;;;13.80;7.57;;;;;;;;;;4896148;29;20207;-90
2021/08/10 00:14:01;;;;;;;10.05;6.60;;;;;;;;;;4879808;29;20197;-90
2021/08/10 00:16:27;;;;;;;14.57;6.72;;;16.70;99.90;;;;;;4896227;29;20212;-90
2021/08/10 00:18:53;;;;;;;11.32;7.00;;;;;;;;;;4876904;29;20652;-90
2021/08/10 00:21:19;;;;;;;13.00;6.82;;;16.20;99.90;;;;;;4891834;29;20221;-90
2021/08/10 00:23:44;;;;;;;15.05;7.93;;;16.50;99.90;;;;;;4880248;29;20193;-90
2021/08/10 00:26:12;;;;;;;18.92;7.22;;;16.40;99.90;;;;;;4896042;29;20615;-90
2021/08/10 00:28:38;;;;;;;15.50;7.28;;;16.70;99.90;;;;;;4895698;29;20189;-90
2021/08/10 00:31:04;;;;;;;16.08;7.57;;;;;;;;;;4879520;29;20208;-90
2021/08/10 00:33:30;;;;;;;12.98;8.23;;;;;;;;;;4894502;29;20217;-90
2021/08/10 00:35:56;;;;;;;12.93;7.38;;;;;;;;;;4895589;29;20241;-90
2021/08/10 00:38:21;;;;;;;11.57;7.10;;;16.40;99.90;;;;;;4878712;29;20197;-90
2021/08/10 00:40:49;;;;;;;13.50;6.97;;;16.60;99.90;;;;;;4894880;29;20631;-90
2021/08/10 00:43:39;;;;;;;14.10;6.68;;;16.20;99.90;;;;;;4895208;29;20197;-90
2021/08/10 00:46:09;;;;;;;10.05;7.25;;;16.40;99.90;;;;;;4895010;29;20189;-90
2021/08/10 00:48:35;;;;;;;14.60;7.75;;;16.30;99.90;;;;;;4895687;29;20214;-90
2021/08/10 00:51:04;;;;;;;12.18;6.30;;;16.30;99.90;;;;;;4894795;29;20212;-90
2021/08/10 00:53:30;;;;;;;10.30;6.28;;;16.30;99.90;;;;;;4894733;29;20189;-90
2021/08/10 00:55:56;;;;;;;11.95;6.65;;;16.50;99.90;;;;;;4895331;29;20193;-90
2021/08/10 00:58:22;;;;;;;21.83;7.40;;;;;;;;;;4894985;29;20537;-90
2021/08/10 01:00:48;;;;;;;16.08;7.50;;;16.20;99.90;;;;;;4878439;29;20252;-90
2021/08/10 01:03:14;;;;;;;13.88;7.35;;;16.40;99.90;;;;;;4896240;29;20236;-88
2021/08/10 01:05:45;;;;;;;15.88;7.03;;;16.30;99.90;;;;;;4879246;29;20562;-90
2021/08/10 01:08:11;;;;;;;19.90;7.13;;;;;;;;;;4895892;29;20714;-90
2021/08/10 01:10:43;;;;;;;22.63;7.57;;;16.30;99.90;;;;;;4894439;29;20201;-90
2021/08/10 01:13:29;;;;;;;19.20;7.70;;;16.30;99.90;;;;;;4896723;29;20189;-90
2021/08/10 01:16:16;;;;;;;13.68;7.00;;;16.50;99.90;;;;;;4895100;29;20233;-90
2021/08/10 01:19:05;;;;;;;16.55;7.20;;;16.20;99.90;;;;;;4883363;29;20182;-90
2021/08/10 01:21:38;;;;;;;15.05;6.93;;;16.50;99.90;;;;;;4864641;29;20233;-89
2021/08/10 01:24:35;;;;;;;12.68;6.10;;;16.10;99.90;;;;;;4896374;29;20197;-89
2021/08/10 01:27:02;;;;;;;14.30;6.68;;;;;;;;;;4897562;29;20578;-88
2021/08/10 01:29:50;;;;;;;11.48;6.80;;;16.20;99.90;;;;;;4899463;29;20186;-89
2021/08/10 01:32:16;;;;;;;17.63;6.65;;;16.60;99.90;;;;;;4898165;29;20200;-89
2021/08/10 01:34:45;;;;;;;12.75;6.53;;;16.20;99.90;;;;;;4899388;29;20655;-89
2021/08/10 01:37:15;;;;;;;12.27;6.45;;;16.30;99.90;;;;;;4898896;29;20267;-89
2021/08/10 01:39:43;;;;;;;15.00;6.03;;;16.50;99.90;;;;;;4897666;29;20272;-89
2021/08/10 01:42:11;;;;;;;10.40;6.30;;;16.00;99.90;;;;;;4898089;29;20177;-89
2021/08/10 01:44:37;;;;;;;15.57;6.57;;;16.00;99.90;;;;;;4898008;29;20197;-89
2021/08/10 01:47:07;;;;;;;19.27;7.07;;;16.20;99.90;;;;;;4898805;29;20272;-89
2021/08/10 01:49:35;;;;;;;11.32;6.25;;;16.10;99.90;;;;;;4898987;29;20272;-89
2021/08/10 01:52:02;;;;;;;16.48;7.22;;;16.00;99.90;;;;;;4899292;29;20303;-90
2021/08/10 01:54:28;;;;;;;18.33;7.60;;;15.70;99.90;;;;;;4898141;29;20197;-89
2021/08/10 01:56:54;;;;;;;10.45;6.93;;;16.00;99.90;;;;;;4898021;29;20189;-89
2021/08/10 01:59:21;;;;;;;22.90;7.40;;;15.80;99.90;;;;;;4897359;29;20236;-90
2021/08/10 02:01:48;;;;;;;18.35;7.57;;;15.70;99.90;;;;;;4897781;29;20201;-88
2021/08/10 02:04:19;;;;;;;15.88;6.78;;;15.60;99.90;;;;;;4898434;29;20200;-89
2021/08/10 02:06:47;;;;;;;14.85;6.90;;;15.90;99.90;;;;;;4898202;29;20221;-89
2021/08/10 02:09:16;;;;;;;19.17;7.45;;;15.70;99.90;;;;;;4897686;29;20196;-89
2021/08/10 02:11:42;;;;;;;18.80;8.70;;;15.60;99.90;;;;;;4898696;29;20196;-88
2021/08/10 02:14:10;;;;;;;19.60;8.63;;;15.80;99.90;;;;;;4898867;29;20268;-89
2021/08/10 02:16:37;;;;;;;15.45;6.90;;;15.80;99.90;;;;;;4882037;29;20288;-89
2021/08/10 02:19:03;;;;;;;17.55;8.70;;;15.80;99.90;;;;;;4899101;29;20614;-90
2021/08/10 02:21:38;;;;;;;19.25;7.60;;;15.60;99.90;;;;;;4897170;29;20217;-90
2021/08/10 02:24:08;;;;;;;12.90;6.45;;;15.50;99.90;;;;;;4898293;29;20200;-90
2021/08/10 02:26:59;;;;;;;15.98;7.22;;;15.70;99.90;;;;;;4900347;29;20691;-89
2021/08/10 02:29:30;;;;;;;17.65;7.47;;;15.50;99.90;;;;;;4902141;29;20189;-90
2021/08/10 02:31:56;;;;;;;14.63;7.53;;;;;;;;;;4900333;29;20213;-89
2021/08/10 02:34:23;;;;;;;13.75;6.85;;;15.70;99.90;;;;;;4898905;29;20685;-89
2021/08/10 02:36:54;;;;;;;18.08;7.57;;;15.50;99.90;;;;;;4898112;29;20288;-89
2021/08/10 02:39:21;;;;;;;14.93;7.38;;;15.70;99.90;;;;;;4897214;29;20192;-89
2021/08/10 02:41:49;;;;;;;17.00;7.57;;;15.30;99.90;;;;;;4881826;29;20201;-89
2021/08/10 02:44:15;;;;;;;14.88;6.57;;;15.40;99.90;;;;;;4901074;29;20193;-90
2021/08/10 02:46:41;;;;;;;18.58;7.45;;;;;;;;;;4900874;29;20245;-89
2021/08/10 02:49:13;;;;;;;16.20;7.82;;;15.90;99.90;;;;;;4909150;29;20190;-91
2021/08/10 02:51:39;;;;;;;13.40;7.43;;;15.80;99.90;;;;;;4922093;29;20185;-90
2021/08/10 02:54:05;;;;;;;14.48;7.25;;;15.60;99.90;;;;;;4914159;29;20212;-89
2021/08/10 02:56:41;;;;;;;14.88;6.82;;;15.70;99.90;;;;;;4898385;29;20190;-89
2021/08/10 02:59:29;;;;;;;13.40;7.60;;;15.60;99.90;;;;;;4899532;29;20264;-90
2021/08/10 03:02:14;;;;;;;15.85;7.40;;;15.70;99.90;;;;;;4900156;29;20348;-90
2021/08/10 03:04:56;;;;;;;13.57;7.70;;;15.80;99.90;;;;;;4916979;29;20180;-90
2021/08/10 03:07:25;;;;;;;21.00;8.77;;;15.30;99.90;;;;;;4900046;29;20185;-89
2021/08/10 03:09:57;;;;;;;19.73;8.40;;;15.70;99.90;;;;;;4902008;29;20181;-88
2021/08/10 03:12:24;;;;;;;22.52;8.40;;;15.80;99.90;;;;;;4919421;29;20212;-90
2021/08/10 03:14:52;;;;;;;24.15;8.98;;;18.80;99.90;;;;;;4900949;29;20192;-90
2021/08/10 03:17:21;;;;;;;36.20;10.35;;;15.70;99.90;;;;;;4884829;29;20200;-89
2021/08/10 03:19:48;;;;;;;20.70;8.55;;;16.00;99.90;;;;;;4898186;29;20217;-88
2021/08/10 03:22:15;;;;;;;21.02;8.20;;;15.60;99.90;;;;;;4884049;29;20290;-89
2021/08/10 03:24:44;;;;;;;35.97;8.07;;;15.40;99.90;;;;;;4899318;29;20263;-91
2021/08/10 03:27:11;;;;;;;22.80;8.25;;;15.80;99.90;;;;;;4916446;29;20181;-90
2021/08/10 03:29:38;;;;;;;23.02;8.27;;;15.50;99.90;;;;;;4916021;29;20196;-90
2021/08/10 03:32:05;;;;;;;30.83;8.38;;;15.80;99.90;;;;;;4915822;29;20181;-91
2021/08/10 03:34:32;;;;;;;20.40;8.05;;;15.70;99.90;;;;;;4916359;29;20197;-91
2021/08/10 03:37:00;;;;;;;20.75;8.55;;;16.10;99.90;;;;;;4883277;29;20224;-90
2021/08/10 03:39:26;;;;;;;22.98;8.10;;;16.10;99.90;;;;;;4915653;29;20180;-89
2021/08/10 03:41:53;;;;;;;19.38;7.65;;;15.90;99.90;;;;;;4883172;29;20246;-89
2021/08/10 03:44:20;;;;;;;21.02;7.70;;;16.20;99.90;;;;;;4883396;29;20661;-89
2021/08/10 03:46:46;;;;;;;13.70;7.28;;;16.10;99.90;;;;;;4915969;29;20244;-88
2021/08/10 03:49:14;;;;;;;15.10;7.85;;;16.30;99.90;;;;;;4898411;29;20220;-88
2021/08/10 03:51:39;;;;;;;14.55;8.05;;;16.00;99.90;;;;;;4915958;29;20193;-89
2021/08/10 03:54:06;;;;;;;22.75;8.05;;;;;;;;;;4915127;29;20239;-89
2021/08/10 03:56:33;;;;;;;13.60;7.03;;;15.70;99.90;;;;;;4915725;29;20212;-88
2021/08/10 03:59:00;;;;;;;20.05;7.25;;;16.60;99.90;;;;;;4900508;29;20212;-89
2021/08/10 04:01:27;;;;;;;19.52;6.93;;;16.40;99.90;;;;;;4886205;29;20208;-88
2021/08/10 04:03:56;;;;;;;14.48;7.32;;;15.90;99.90;;;;;;4917640;29;20207;-88
2021/08/10 04:06:23;;;;;;;17.15;6.80;;;15.90;99.90;;;;;;4917271;29;20204;-88
2021/08/10 04:08:50;;;;;;;24.42;7.70;;;16.10;99.90;;;;;;4900148;29;20192;-88
2021/08/10 04:11:20;;;;;;;24.23;8.18;;;15.90;99.90;;;;;;4884929;29;20256;-88
2021/08/10 04:13:46;;;;;;;20.35;7.18;;;16.20;99.90;;;;;;4901511;29;20268;-88
2021/08/10 04:16:15;;;;;;;21.02;7.28;;;16.00;99.90;;;;;;4916923;29;20184;-88
2021/08/10 04:18:42;;;;;;;26.30;8.10;;;16.20;99.90;;;;;;4917338;29;20184;-88
2021/08/10 04:21:08;;;;;;;11.82;7.85;;;16.10;99.90;;;;;;4917164;29;20240;-88
2021/08/10 04:23:34;;;;;;;10.45;7.32;;;16.00;99.90;;;;;;4917244;29;20259;-88
2021/08/10 04:26:00;;;;;;;19.50;9.82;;;;;;;;;;4916556;29;20271;-88
2021/08/10 04:28:26;;;;;;;15.50;9.05;;;16.20;99.90;;;;;;4917578;29;20195;-89
2021/08/10 04:30:52;;;;;;;16.85;8.82;;;;;;;;;;4899394;29;20188;-88
2021/08/10 04:33:18;;;;;;;19.40;12.32;;;16.40;99.90;;;;;;4916756;29;20188;-89
2021/08/10 04:35:44;;;;;;;35.03;13.90;;;;;;;;;;4899532;29;20755;-88
2021/08/10 04:38:10;;;;;;;32.40;15.25;;;16.00;99.90;;;;;;4916619;29;20192;-88
2021/08/10 04:40:36;;;;;;;28.38;16.10;;;;;;;;;;4916453;29;20216;-89
2021/08/10 04:43:02;;;;;;;24.95;14.73;;;16.30;99.90;;;;;;4916604;29;20200;-88
2021/08/10 04:45:28;;;;;;;27.40;11.80;;;16.40;99.90;;;;;;4916373;29;20244;-88
2021/08/10 04:47:54;;;;;;;20.23;11.20;;;;;;;;;;4917493;29;20198;-88
2021/08/10 04:50:20;;;;;;;24.48;12.70;;;16.70;99.90;;;;;;4916569;29;20192;-89
2021/08/10 04:52:46;;;;;;;22.30;13.02;;;;;;;;;;4899662;29;20203;-89
2021/08/10 04:55:12;;;;;;;25.83;14.43;;;16.80;99.90;;;;;;4899787;29;20192;-89
2021/08/10 04:57:38;;;;;;;28.20;14.82;;;16.80;99.90;;;;;;4916465;29;20271;-89
2021/08/10 05:00:06;;;;;;;26.52;13.55;;;17.10;99.90;;;;;;4918017;29;20339;-89
2021/08/10 05:02:31;;;;;;;25.55;14.50;;;17.00;99.90;;;;;;4901986;29;20192;-88
2021/08/10 05:04:57;;;;;;;30.35;14.30;;;;;;;;;;4901649;29;20283;-88
2021/08/10 05:07:23;;;;;;;19.92;12.73;;;16.80;99.90;;;;;;4902095;29;20191;-88
2021/08/10 05:09:49;;;;;;;17.65;10.95;;;17.20;99.90;;;;;;4918429;29;20275;-88
2021/08/10 05:12:15;;;;;;;19.33;10.35;;;;;;;;;;4918474;29;20220;-88
2021/08/10 05:14:41;;;;;;;16.85;9.60;;;16.80;99.90;;;;;;4902179;29;20193;-90
2021/08/10 05:17:07;;;;;;;14.52;8.18;;;;;;;;;;4902221;29;20259;-90
2021/08/10 05:19:32;;;;;;;14.80;8.70;;;17.40;99.90;;;;;;4918888;29;20197;-89
2021/08/10 05:21:58;;;;;;;19.70;8.35;;;16.90;99.90;;;;;;4903180;29;20328;-92
2021/08/10 05:24:24;;;;;;;15.75;8.80;;;;;;;;;;4905386;29;20421;-91
2021/08/10 05:26:49;;;;;;;14.82;8.35;;;17.40;99.90;;;;;;4903262;29;20188;-93
2021/08/10 05:29:15;;;;;;;14.45;8.93;;;17.10;99.90;;;;;;4888398;29;20940;-94
2021/08/10 05:31:42;;;;;;;21.35;8.85;;;17.40;99.90;;;;;;4904990;29;20523;-93
2021/08/10 05:34:08;;;;;;;12.23;8.43;;;17.30;99.90;;;;;;4902050;29;20299;-92
2021/08/10 05:36:33;;;;;;;12.35;8.43;;;17.40;99.90;;;;;;4912231;29;20686;-91
2021/08/10 05:38:59;;;;;;;14.77;8.43;;;;;;;;;;4909827;29;20212;-91
2021/08/10 05:41:25;;;;;;;18.13;8.30;;;17.00;99.90;;;;;;4909837;29;20228;-92
2021/08/10 05:43:51;;;;;;;23.27;8.75;;;;;;;;;;4920089;29;20597;-92
2021/08/10 05:46:17;;;;;;;17.05;8.93;;;17.50;99.90;;;;;;4901605;29;20189;-91
2021/08/10 05:48:42;;;;;;;18.83;8.75;;;17.10;99.90;;;;;;4901812;29;20185;-92
2021/08/10 05:51:08;;;;;;;15.18;9.15;;;;;;;;;;4866913;29;20197;-92
2021/08/10 05:53:35;;;;;;;18.08;8.40;;;17.30;99.90;;;;;;4913059;29;20197;-93
2021/08/10 05:56:02;;;;;;;11.88;8.05;;;17.40;99.90;;;;;;4934326;29;20223;-91
2021/08/10 05:58:28;;;;;;;16.13;9.85;;;17.60;99.90;;;;;;4922773;29;20192;-91
2021/08/10 06:00:54;;;;;;;30.17;14.43;;;17.90;99.90;;;;;;4900417;29;20256;-90
2021/08/10 06:03:20;;;;;;;23.73;12.13;;;;;;;;;;4917495;29;20185;-90
2021/08/10 06:05:46;;;;;;;15.27;8.18;;;;;;;;;;4919951;29;20199;-89
2021/08/10 06:08:12;;;;;;;14.68;8.07;;;17.90;99.90;;;;;;4926174;29;20224;-90
2021/08/10 06:10:38;;;;;;;15.68;7.05;;;17.70;99.90;;;;;;4908719;29;20540;-90
2021/08/10 06:13:04;;;;;;;14.77;7.75;;;17.80;99.90;;;;;;4923176;29;20272;-90
2021/08/10 06:15:30;;;;;;;9.30;7.05;;;18.10;99.90;;;;;;4907496;29;20192;-90
2021/08/10 06:17:56;;;;;;;24.50;7.95;;;18.20;99.90;;;;;;4905620;29;20200;-92
2021/08/10 06:20:22;;;;;;;19.27;8.82;;;;;;;;;;4921329;29;20565;-91
2021/08/10 06:22:48;;;;;;;12.45;7.38;;;18.10;99.90;;;;;;4891716;29;20199;-91
2021/08/10 06:25:14;;;;;;;17.73;7.80;;;18.40;99.90;;;;;;4924392;29;20189;-92
2021/08/10 06:27:40;;;;;;;15.77;7.47;;;;;;;;;;4924968;29;20185;-91
2021/08/10 06:30:08;;;;;;;15.73;6.63;;;17.90;99.90;;;;;;4923417;29;20199;-92
2021/08/10 06:32:34;;;;;;;10.52;5.72;;;18.30;99.90;;;;;;4925559;29;20192;-89
2021/08/10 06:35:00;;;;;;;9.45;5.95;;;;;;;;;;4942783;28;20224;-88
2021/08/10 06:37:26;;;;;;;21.45;6.72;;;18.80;99.90;;;;;;4936625;29;20200;-89
2021/08/10 06:39:52;;;;;;;16.90;5.88;;;18.80;99.90;;;;;;4922360;29;20208;-87
2021/08/10 06:42:21;;;;;;;12.60;6.05;;;18.80;99.90;;;;;;4924390;29;20176;-87
2021/08/10 06:44:47;;;;;;;14.10;6.57;;;18.90;99.90;;;;;;4939037;28;20193;-90
2021/08/10 06:47:14;;;;;;;11.20;6.25;;;18.80;99.90;;;;;;4890798;29;20184;-90
2021/08/10 06:49:40;;;;;;;9.60;5.20;;;18.70;99.90;;;;;;4888978;29;20197;-90
2021/08/10 06:52:07;;;;;;;13.88;5.13;;;18.90;99.90;;;;;;4923870;29;20591;-91
2021/08/10 06:54:33;;;;;;;11.15;5.50;;;;;;;;;;4910576;29;20203;-89
2021/08/10 06:57:04;;;;;;;9.88;5.40;;;19.20;99.90;;;;;;4909758;29;20212;-91
2021/08/10 06:59:31;;;;;;;12.45;5.00;;;;;;;;;;4923234;29;20359;-93
2021/08/10 07:01:56;;;;;;;6.78;4.47;;;19.80;99.90;;;;;;4927951;29;20303;-92
2021/08/10 07:04:22;;;;;;;9.02;5.07;;;;;;;;;;4917917;29;20220;-90
2021/08/10 07:06:48;;;;;;;6.15;4.32;;;19.70;99.90;;;;;;4920875;29;20216;-88
2021/08/10 07:09:17;;;;;;;11.95;4.85;;;19.80;99.90;;;;;;4920962;29;20200;-90
2021/08/10 07:11:44;;;;;;;10.40;5.10;;;;;;;;;;4896550;29;20212;-90
2021/08/10 07:14:13;;;;;;;11.98;5.43;;;19.60;99.90;;;;;;4904419;29;20188;-90
2021/08/10 07:16:40;;;;;;;13.27;4.85;;;20.30;99.90;;;;;;4908296;29;20185;-90
2021/08/10 07:19:06;;;;;;;8.82;5.25;;;;;;;;;;4904472;29;20822;-89
2021/08/10 07:21:32;;;;;;;8.25;4.78;;;;;;;;;;4923284;29;20542;-89
2021/08/10 07:23:58;;;;;;;9.45;4.75;;;;;;;;;;4903976;29;20192;-89
2021/08/10 07:26:24;;;;;;;10.57;5.00;;;20.40;99.90;;;;;;4918822;29;20176;-89
2021/08/10 07:28:50;;;;;;;8.57;4.57;;;;;;;;;;4921281;29;20184;-88
2021/08/10 07:31:16;;;;;;;4.97;4.38;;;20.40;99.90;;;;;;4902118;29;20620;-89
2021/08/10 07:33:42;;;;;;;9.10;4.13;;;20.50;99.90;;;;;;4884130;29;20196;-90
2021/08/10 07:36:08;;;;;;;7.47;4.25;;;;;;;;;;4899006;29;20216;-89
2021/08/10 07:38:34;;;;;;;7.05;4.13;;;;;;;;;;4916184;29;20223;-89
2021/08/10 07:41:00;;;;;;;7.45;4.22;;;;;;;;;;4899977;29;20251;-90
2021/08/10 07:43:26;;;;;;;7.75;4.40;;;;;;;;;;4915958;29;20279;-89
2021/08/10 07:45:52;;;;;;;5.18;4.40;;;;;;;;;;4901518;29;20193;-88
2021/08/10 07:48:18;;;;;;;7.60;4.50;;;;;;;;;;4904273;29;20190;-91
2021/08/10 07:50:46;;;;;;;7.90;4.05;;;;;;;;;;4900433;29;20270;-89
2021/08/10 07:53:12;;;;;;;6.95;4.78;;;;;;;;;;4901400;29;20185;-88
2021/08/10 07:55:38;;;;;;;6.00;4.07;;;;;;;;;;4918812;29;20184;-89
2021/08/10 07:58:04;;;;;;;4.93;4.13;;;;;;;;;;4920371;29;20185;-89
2021/08/10 08:00:30;;;;;;;4.63;3.75;;;22.80;99.90;;;;;;4885859;29;20239;-89
2021/08/10 08:02:56;;;;;;;8.60;3.90;;;;;;;;;;4902665;29;20192;-89
2021/08/10 08:05:22;;;;;;;6.60;4.20;;;22.30;99.90;;;;;;4902769;29;20200;-89
2021/08/10 08:07:48;;;;;;;5.13;3.42;;;;;;;;;;4903527;29;20208;-90
2021/08/10 08:10:14;;;;;;;5.85;4.15;;;;;;;;;;4930190;29;20197;-91
2021/08/10 08:12:40;;;;;;;5.07;3.55;;;;;;;;;;4923015;29;20192;-91
2021/08/10 08:15:07;;;;;;;7.68;3.10;;;23.00;99.90;;;;;;4907211;29;20192;-90
2021/08/10 08:17:33;;;;;;;4.28;2.97;;;;;;;;;;4903778;29;20653;-91
2021/08/10 08:20:00;;;;;;;4.32;2.97;;;;;;;;;;4913354;29;20693;-90
2021/08/10 08:22:25;;;;;;;3.30;3.00;;;23.30;99.90;;;;;;4930846;29;20208;-89
2021/08/10 08:24:51;;;;;;;3.13;2.60;;;;;;;;;;4917884;29;20182;-90
2021/08/10 08:27:17;;;;;;;6.88;3.00;;;;;;;;;;4918639;29;20256;-90
2021/08/10 08:29:43;;;;;;;4.15;2.90;;;;;;;;;;4920607;29;20212;-91
2021/08/10 08:32:09;;;;;;;5.35;2.67;;;23.90;99.90;;;;;;4924083;29;20196;-91
2021/08/10 08:34:35;;;;;;;3.65;1.92;;;;;;;;;;4925323;29;20211;-91
2021/08/10 08:37:03;;;;;;;5.15;2.30;;;;;;;;;;4931155;29;20172;-91
2021/08/10 08:39:30;;;;;;;3.88;2.45;;;23.90;99.90;;;;;;4911886;29;20180;-90
2021/08/10 08:42:01;;;;;;;2.05;1.85;;;24.60;99.90;;;;;;4934495;29;20208;-92
2021/08/10 08:44:34;;;;;;;2.45;2.05;;;24.30;99.90;;;;;;4941604;29;20192;-88
2021/08/10 08:47:00;;;;;;;3.13;2.20;;;;;;;;;;4930401;29;20200;-89
2021/08/10 08:49:27;;;;;;;2.20;1.80;;;;;;;;;;4937942;29;20203;-90
2021/08/10 08:51:54;;;;;;;6.68;2.13;;;24.50;99.90;;;;;;4912669;29;20193;-90
2021/08/10 08:54:20;;;;;;;8.10;2.13;;;;;;;;;;4909878;29;20190;-91
2021/08/10 08:56:46;;;;;;;5.28;1.90;;;;;;;;;;4908659;29;20189;-93
2021/08/10 08:59:12;;;;;;;3.58;1.70;;;;;;;;;;4901437;29;20678;-91
2021/08/10 09:01:39;;;;;;;3.55;2.15;;;;;;;;;;4923539;29;20227;-92
2021/08/10 09:04:08;;;;;;;2.28;1.90;;;23.70;99.90;;;;;;4923266;29;20189;-93
2021/08/10 09:06:34;;;;;;;7.45;2.95;;;;;;;;;;4933793;29;20219;-91
2021/08/10 09:09:23;;;;;;;2.63;2.05;;;24.60;99.90;;;;;;4924188;29;20730;-90
2021/08/10 09:11:50;;;;;;;2.35;1.80;;;24.80;99.90;;;;;;4916071;29;20199;-90
2021/08/10 09:14:16;;;;;;;3.92;1.73;;;;;;;;;;4932995;29;20213;-89
2021/08/10 09:17:11;;;;;;;2.90;2.08;;;25.00;99.90;;;;;;4901095;29;20193;-91
2021/08/10 09:19:52;;;;;;;2.70;2.10;;;24.80;99.90;;;;;;4912909;29;20192;-90
2021/08/10 09:22:22;;;;;;;3.33;2.10;;;25.50;99.90;;;;;;4925541;29;20189;-91
2021/08/10 09:25:04;;;;;;;5.43;2.00;;;26.10;99.90;;;;;;4920674;29;20193;-92
2021/08/10 09:27:34;;;;;;;2.40;1.70;;;25.60;99.90;;;;;;4920381;29;20213;-90
2021/08/10 09:30:02;;;;;;;2.67;1.83;;;25.70;99.90;;;;;;4902317;29;20197;-92
2021/08/10 09:32:28;;;;;;;3.15;1.77;;;;;;;;;;4902411;29;20192;-89
2021/08/10 09:35:06;;;;;;;2.25;1.50;;;25.40;99.90;;;;;;4903439;29;20193;-92
2021/08/10 09:37:33;;;;;;;2.08;1.40;;;25.70;99.90;;;;;;4922552;29;20199;-91
2021/08/10 09:39:59;;;;;;;3.33;2.15;;;;;;;;;;4919661;29;20216;-88
2021/08/10 09:42:26;;;;;;;1.83;1.30;;;;;;;;;;4906829;29;20191;-91
2021/08/10 09:44:58;;;;;;;3.10;1.80;;;26.30;99.90;;;;;;4923817;29;20189;-90
2021/08/10 09:47:35;;;;;;;3.15;1.55;;;26.20;99.90;;;;;;4910533;29;20192;-92
2021/08/10 09:50:01;;;;;;;3.70;2.10;;;26.30;99.90;;;;;;4926407;29;20196;-88
2021/08/10 09:52:34;;;;;;;2.15;1.90;;;26.70;99.90;;;;;;4893233;29;20279;-90
2021/08/10 09:55:16;;;;;;;3.00;1.40;;;27.10;99.90;;;;;;4905509;29;20549;-91
2021/08/10 09:57:59;;;;;;;3.00;1.50;;;26.60;99.40;;;;;;4905806;29;20275;-89
2021/08/10 10:00:51;;;;;;;2.38;1.40;;;26.50;99.90;;;;;;4919114;29;20247;-89
2021/08/10 10:03:22;;;;;;;3.95;1.60;;;26.60;99.90;;;;;;4895679;29;20663;-88
2021/08/10 10:05:49;;;;;;;2.97;1.65;;;26.80;99.80;;;;;;4903954;29;20184;-89
2021/08/10 10:08:22;;;;;;;4.68;1.58;;;26.90;98.30;;;;;;4902225;29;20243;-89
2021/08/10 10:10:51;;;;;;;1.65;1.40;;;27.00;99.40;;;;;;4916543;29;20208;-89
2021/08/10 10:13:19;;;;;;;3.75;1.60;;;27.10;97.20;;;;;;4918167;29;20601;-88
2021/08/10 10:15:46;;;;;;;2.15;1.85;;;27.30;98.00;;;;;;4899300;29;20189;-88
2021/08/10 10:18:13;;;;;;;2.80;1.60;;;27.20;95.50;;;;;;4898964;29;20184;-88
2021/08/10 10:20:44;;;;;;;2.67;1.77;;;27.30;96.70;;;;;;4916592;29;20230;-88
2021/08/10 10:23:25;;;;;;;5.05;2.10;;;27.30;95.00;;;;;;4911320;29;20184;-88
2021/08/10 10:25:52;;;;;;;13.20;7.30;;;27.00;99.90;;;;;;4897507;29;20682;-88
2021/08/10 10:28:18;;;;;;;4.63;2.75;;;27.30;97.10;;;;;;4913942;29;20204;-88
2021/08/10 10:30:49;;;;;;;2.92;2.08;;;;;;;;;;4888045;29;20213;-88
2021/08/10 10:33:15;;;;;;;4.97;2.00;;;27.70;99.90;;;;;;4922621;29;20226;-89
2021/08/10 10:35:42;;;;;;;2.92;1.50;;;27.60;96.10;;;;;;4916876;29;20173;-89
2021/08/10 10:38:09;;;;;;;4.70;1.65;;;27.70;95.20;;;;;;4927228;29;20204;-87
2021/08/10 10:40:35;;;;;;;5.75;1.75;;;27.70;96.00;;;;;;4915573;29;20260;-87
2021/08/10 10:43:01;;;;;;;8.70;2.28;;;;;;;;;;4903849;29;20187;-87
2021/08/10 10:45:38;;;;;;;2.25;1.70;;;27.00;99.90;;;;;;4902376;29;20285;-86
2021/08/10 10:48:22;;;;;;;1.80;1.70;;;26.80;99.90;;;;;;4905251;29;20181;-86
2021/08/10 10:51:01;;;;;;;5.68;1.77;;;27.20;99.00;;;;;;4921123;29;20196;-86
2021/08/10 10:53:27;;;;;;;2.65;1.80;;;;;;;;;;4924893;29;20195;-86
2021/08/10 10:55:54;;;;;;;3.63;2.10;;;;;;;;;;4905699;29;20188;-87
2021/08/10 10:58:33;;;;;;;3.40;1.75;;;26.80;99.40;;;;;;4918626;29;20181;-88
2021/08/10 11:01:21;;;;;;;1.92;1.65;;;27.50;99.90;;;;;;4902075;29;20273;-87
2021/08/10 11:04:19;;;;;;;1.70;1.60;;;28.30;98.60;;;;;;4902668;29;20197;-88
2021/08/10 11:06:46;;;;;;;4.75;1.67;;;;;;;;;;4874072;29;20193;-89
2021/08/10 11:09:48;;;;;;;1.85;1.70;;;27.70;97.40;;;;;;4904844;29;20597;-87
2021/08/10 11:12:42;;;;;;;1.50;1.40;;;27.50;98.90;;;;;;4870341;29;20194;-89
2021/08/10 11:15:22;;;;;;;2.95;1.92;;;26.60;99.90;;;;;;4907378;29;20201;-89
2021/08/10 11:18:06;;;;;;;5.53;1.85;;;26.00;99.80;;;;;;4904526;29;20177;-88
2021/08/10 11:20:32;;;;;;;1.83;1.65;;;;;;;;;;4907103;29;20702;-92
2021/08/10 11:23:16;;;;;;;2.38;2.00;;;26.30;98.80;;;;;;4911453;29;20200;-91
2021/08/10 11:25:42;;;;;;;2.63;1.98;;;;;;;;;;4911006;29;20387;-90
2021/08/10 11:28:24;;;;;;;3.67;1.70;;;26.30;98.20;;;;;;4911875;29;20220;-87
2021/08/10 11:30:50;;;;;;;3.50;2.03;;;;;;;;;;4910914;29;20193;-89
2021/08/10 11:33:35;;;;;;;5.97;1.80;;;26.90;95.90;;;;;;4911808;29;20199;-90
2021/08/10 11:36:29;;;;;;;3.70;1.80;;;26.50;99.80;;;;;;4913605;29;20184;-89
2021/08/10 11:38:55;;;;;;;3.92;1.67;;;;;;;;;;4906646;29;20305;-87
2021/08/10 11:41:27;;;;;;;3.95;1.65;;;27.20;99.90;;;;;;4902450;29;20698;-88
2021/08/10 11:43:57;;;;;;;3.00;2.40;;;28.00;99.20;;;;;;4898501;29;20192;-87
2021/08/10 11:46:29;;;;;;;4.20;1.63;;;28.20;99.90;;;;;;4901069;29;20238;-89
2021/08/10 11:49:03;;;;;;;2.85;1.88;;;27.70;94.80;;;;;;4901680;29;20189;-87
2021/08/10 11:51:39;;;;;;;4.65;2.50;;;28.00;99.10;;;;;;4901058;29;20662;-88
2021/08/10 11:54:11;;;;;;;2.20;1.73;;;27.50;99.90;;;;;;4901996;29;20185;-88
2021/08/10 11:56:39;;;;;;;5.47;1.80;;;27.60;95.10;;;;;;4904434;29;20667;-87
2021/08/10 11:59:09;;;;;;;6.60;4.35;;;27.80;95.80;;;;;;4898521;29;20201;-87
2021/08/10 12:01:37;;;;;;;3.35;1.75;;;27.70;98.50;;;;;;4910605;29;20222;-88
2021/08/10 12:04:22;;;;;;;3.47;1.77;;;28.00;99.90;;;;;;4924964;29;20218;-88
2021/08/10 12:06:52;;;;;;;2.35;1.40;;;28.30;95.10;;;;;;4925308;29;20176;-89
2021/08/10 12:09:25;;;;;;;2.45;1.92;;;28.50;95.20;;;;;;4907965;29;20221;-90
2021/08/10 12:11:55;;;;;;;3.80;1.85;;;28.60;95.30;;;;;;4914408;29;20188;-85
2021/08/10 12:14:29;;;;;;;6.40;2.13;;;27.90;93.20;;;;;;4928248;29;20184;-88
2021/08/10 12:17:06;;;;;;;2.08;1.90;;;27.20;95.80;;;;;;4906923;29;20185;-89
2021/08/10 12:19:39;;;;;;;2.67;1.95;;;27.30;97.30;;;;;;4925524;29;20569;-89
2021/08/10 12:22:31;;;;;;;6.30;2.13;;;27.90;93.90;;;;;;4925138;29;20271;-89
2021/08/10 12:25:00;;;;;;;5.93;2.50;;;28.10;93.40;;;;;;4927596;29;20176;-90
2021/08/10 12:27:33;;;;;;;2.15;1.73;;;28.10;96.70;;;;;;4910508;29;20180;-90
2021/08/10 12:30:00;;;;;;;1.90;1.70;;;;;;;;;;4928660;29;20188;-90
2021/08/10 12:32:31;;;;;;;4.68;2.17;;;28.30;98.90;;;;;;4917676;29;20188;-89
2021/08/10 12:34:58;;;;;;;2.92;2.00;;;;;;;;;;4911092;29;20204;-89
2021/08/10 12:37:31;;;;;;;6.55;2.50;;;27.30;99.60;;;;;;4913613;29;20176;-89
2021/08/10 12:39:57;;;;;;;3.67;2.47;;;28.30;94.30;;;;;;4928653;29;20193;-89
2021/08/10 12:42:23;;;;;;;4.57;1.33;;;28.20;96.90;;;;;;4921511;29;20192;-90
2021/08/10 12:44:53;;;;;;;2.72;2.00;;;28.40;96.10;;;;;;4907326;29;20192;-90
2021/08/10 12:47:35;;;;;;;12.70;6.55;;;29.00;96.30;;;;;;4881810;29;20184;-89
2021/08/10 12:50:02;;;;;;;2.60;2.40;;;;;;;;;;4893754;29;20275;-89
2021/08/10 12:52:44;;;;;;;5.90;2.70;;;28.70;96.70;;;;;;4897486;29;20231;-90
2021/08/10 12:55:10;;;;;;;7.93;3.65;;;;;;;;;;4914431;29;20188;-90
2021/08/10 12:57:37;;;;;;;2.33;2.13;;;;;;;;;;4896546;29;20293;-89
2021/08/10 13:00:16;;;;;;;7.25;2.03;;;28.50;96.60;;;;;;4896812;29;20291;-89
2021/08/10 13:02:48;;;;;;;3.40;2.05;;;28.80;95.20;;;;;;4914567;29;20199;-90
2021/08/10 13:05:14;;;;;;;3.55;2.97;;;;;;;;;;4915885;29;20289;-90
2021/08/10 13:07:42;;;;;;;2.50;1.90;;;28.50;95.20;;;;;;4920014;29;20190;-89
2021/08/10 13:10:10;;;;;;;3.00;1.85;;;28.40;95.60;;;;;;4920598;29;20291;-91
2021/08/10 13:12:55;;;;;;;2.58;2.03;;;28.00;92.50;;;;;;4916780;29;20223;-89
2021/08/10 13:15:22;;;;;;;3.67;2.55;;;;;;;;;;4897771;29;20198;-90
2021/08/10 13:17:48;;;;;;;2.80;2.17;;;;;;;;;;4914762;29;20212;-89
2021/08/10 13:20:22;;;;;;;2.03;1.50;;;23.50;93.30;;;;;;4914640;29;20224;-91
2021/08/10 13:22:55;;;;;;;1.85;1.70;;;28.00;94.90;;;;;;4918563;29;20216;-89